sensor_id;sensor_type;location;lat;lon;timestamp;P1;durP1;ratioP1;P2;durP2;ratioP2
41719;SDS011;27405;53.316;-6.294;2023-04-19T00:00:36;26.80;;;8.73;;
41719;SDS011;27405;53.316;-6.294;2023-04-19T00:03:02;28.90;;;8.90;;
41719;SDS011;27405;53.316;-6.294;2023-04-19T00:05:29;29.80;;;8.98;;
41719;SDS011;27405;53.316;-6.294;2023-04-19T00:07:55;31.08;;;8.70;;
41719;SDS011;27405;53.316;-6.294;2023-04-19T00:10:21;33.55;;;9.00;;
41719;SDS011;27405;53.316;-6.294;2023-04-19T00:12:47;30.58;;;9.13;;
41719;SDS011;27405;53.316;-6.294;2023-04-19T00:15:13;30.55;;;8.90;;
41719;SDS011;27405;53.316;-6.294;2023-04-19T00:17:39;32.63;;;8.63;;
41719;SDS011;27405;53.316;-6.294;2023-04-19T00:20:04;30.00;;;8.40;;
41719;SDS011;27405;53.316;-6.294;2023-04-19T00:22:31;27.00;;;8.20;;
41719;SDS011;27405;53.316;-6.294;2023-04-19T00:24:56;29.92;;;8.52;;
41719;SDS011;27405;53.316;-6.294;2023-04-19T00:27:22;25.50;;;8.48;;
41719;SDS011;27405;53.316;-6.294;2023-04-19T00:29:48;25.27;;;7.88;;
41719;SDS011;27405;53.316;-6.294;2023-04-19T00:32:14;27.70;;;9.18;;
41719;SDS011;27405;53.316;-6.294;2023-04-19T00:34:40;29.52;;;8.65;;
41719;SDS011;27405;53.316;-6.294;2023-04-19T00:37:06;31.92;;;8.00;;
41719;SDS011;27405;53.316;-6.294;2023-04-19T00:39:32;34.08;;;9.18;;
41719;SDS011;27405;53.316;-6.294;2023-04-19T00:41:58;26.80;;;9.02;;
41719;SDS011;27405;53.316;-6.294;2023-04-19T00:44:25;30.27;;;9.77;;
41719;SDS011;27405;53.316;-6.294;2023-04-19T00:46:51;31.25;;;8.50;;
41719;SDS011;27405;53.316;-6.294;2023-04-19T00:49:17;28.33;;;9.00;;
41719;SDS011;27405;53.316;-6.294;2023-04-19T00:51:44;25.52;;;7.82;;
41719;SDS011;27405;53.316;-6.294;2023-04-19T00:54:10;29.90;;;9.65;;
41719;SDS011;27405;53.316;-6.294;2023-04-19T00:56:37;29.70;;;9.02;;
41719;SDS011;27405;53.316;-6.294;2023-04-19T00:59:04;30.08;;;8.52;;
41719;SDS011;27405;53.316;-6.294;2023-04-19T01:01:30;27.80;;;7.90;;
41719;SDS011;27405;53.316;-6.294;2023-04-19T01:03:55;32.50;;;8.90;;
41719;SDS011;27405;53.316;-6.294;2023-04-19T01:06:21;23.70;;;8.07;;
41719;SDS011;27405;53.316;-6.294;2023-04-19T01:08:47;29.25;;;9.00;;
41719;SDS011;27405;53.316;-6.294;2023-04-19T01:11:13;24.70;;;8.90;;
41719;SDS011;27405;53.316;-6.294;2023-04-19T01:13:38;30.77;;;8.65;;
41719;SDS011;27405;53.316;-6.294;2023-04-19T01:16:05;27.05;;;8.48;;
41719;SDS011;27405;53.316;-6.294;2023-04-19T01:18:31;24.15;;;8.90;;
41719;SDS011;27405;53.316;-6.294;2023-04-19T01:21:01;29.25;;;8.43;;
41719;SDS011;27405;53.316;-6.294;2023-04-19T01:23:27;23.45;;;8.77;;
41719;SDS011;27405;53.316;-6.294;2023-04-19T01:25:53;31.13;;;8.88;;
41719;SDS011;27405;53.316;-6.294;2023-04-19T01:28:19;27.08;;;8.40;;
41719;SDS011;27405;53.316;-6.294;2023-04-19T01:30:44;25.45;;;8.32;;
41719;SDS011;27405;53.316;-6.294;2023-04-19T01:33:10;22.67;;;8.95;;
41719;SDS011;27405;53.316;-6.294;2023-04-19T01:35:36;23.10;;;9.13;;
41719;SDS011;27405;53.316;-6.294;2023-04-19T01:38:01;31.23;;;9.40;;
41719;SDS011;27405;53.316;-6.294;2023-04-19T01:40:27;27.17;;;9.20;;
41719;SDS011;27405;53.316;-6.294;2023-04-19T01:42:53;31.90;;;8.75;;
41719;SDS011;27405;53.316;-6.294;2023-04-19T01:45:18;30.05;;;9.82;;
41719;SDS011;27405;53.316;-6.294;2023-04-19T01:47:44;23.05;;;8.32;;
41719;SDS011;27405;53.316;-6.294;2023-04-19T01:50:10;27.15;;;9.55;;
41719;SDS011;27405;53.316;-6.294;2023-04-19T01:52:36;26.85;;;9.15;;
41719;SDS011;27405;53.316;-6.294;2023-04-19T01:55:01;27.05;;;9.35;;
41719;SDS011;27405;53.316;-6.294;2023-04-19T01:57:27;26.92;;;9.68;;
41719;SDS011;27405;53.316;-6.294;2023-04-19T01:59:53;22.75;;;8.25;;
41719;SDS011;27405;53.316;-6.294;2023-04-19T02:02:18;29.33;;;9.48;;
41719;SDS011;27405;53.316;-6.294;2023-04-19T02:04:44;28.30;;;9.23;;
41719;SDS011;27405;53.316;-6.294;2023-04-19T02:07:10;24.23;;;8.45;;
41719;SDS011;27405;53.316;-6.294;2023-04-19T02:09:36;23.48;;;8.52;;
41719;SDS011;27405;53.316;-6.294;2023-04-19T02:12:03;23.23;;;9.05;;
41719;SDS011;27405;53.316;-6.294;2023-04-19T02:14:29;27.08;;;9.57;;
41719;SDS011;27405;53.316;-6.294;2023-04-19T02:16:55;23.88;;;8.75;;
41719;SDS011;27405;53.316;-6.294;2023-04-19T02:19:21;26.35;;;9.32;;
41719;SDS011;27405;53.316;-6.294;2023-04-19T02:21:47;25.38;;;8.85;;
41719;SDS011;27405;53.316;-6.294;2023-04-19T02:24:13;28.02;;;8.88;;
41719;SDS011;27405;53.316;-6.294;2023-04-19T02:26:39;25.30;;;8.35;;
41719;SDS011;27405;53.316;-6.294;2023-04-19T02:29:05;32.28;;;9.75;;
41719;SDS011;27405;53.316;-6.294;2023-04-19T02:31:31;25.98;;;9.32;;
41719;SDS011;27405;53.316;-6.294;2023-04-19T02:33:57;29.73;;;10.50;;
41719;SDS011;27405;53.316;-6.294;2023-04-19T02:36:22;30.90;;;9.82;;
41719;SDS011;27405;53.316;-6.294;2023-04-19T02:38:48;24.63;;;9.88;;
41719;SDS011;27405;53.316;-6.294;2023-04-19T02:41:14;25.20;;;9.70;;
41719;SDS011;27405;53.316;-6.294;2023-04-19T02:43:39;24.92;;;9.98;;
41719;SDS011;27405;53.316;-6.294;2023-04-19T02:46:05;24.23;;;9.57;;
41719;SDS011;27405;53.316;-6.294;2023-04-19T02:48:31;24.27;;;10.38;;
41719;SDS011;27405;53.316;-6.294;2023-04-19T02:50:57;23.75;;;10.38;;
41719;SDS011;27405;53.316;-6.294;2023-04-19T02:53:23;23.00;;;10.15;;
41719;SDS011;27405;53.316;-6.294;2023-04-19T02:55:49;29.17;;;10.32;;
41719;SDS011;27405;53.316;-6.294;2023-04-19T02:58:14;29.70;;;10.90;;
41719;SDS011;27405;53.316;-6.294;2023-04-19T03:00:40;26.58;;;11.50;;
41719;SDS011;27405;53.316;-6.294;2023-04-19T03:03:06;23.48;;;11.00;;
41719;SDS011;27405;53.316;-6.294;2023-04-19T03:05:33;27.60;;;10.95;;
41719;SDS011;27405;53.316;-6.294;2023-04-19T03:07:59;29.35;;;11.90;;
41719;SDS011;27405;53.316;-6.294;2023-04-19T03:10:24;26.40;;;11.38;;
41719;SDS011;27405;53.316;-6.294;2023-04-19T03:12:50;29.23;;;12.88;;
41719;SDS011;27405;53.316;-6.294;2023-04-19T03:15:16;32.45;;;12.52;;
41719;SDS011;27405;53.316;-6.294;2023-04-19T03:17:42;35.28;;;13.10;;
41719;SDS011;27405;53.316;-6.294;2023-04-19T03:20:08;28.85;;;12.85;;
41719;SDS011;27405;53.316;-6.294;2023-04-19T03:22:35;29.23;;;13.50;;
41719;SDS011;27405;53.316;-6.294;2023-04-19T03:25:02;28.95;;;13.32;;
41719;SDS011;27405;53.316;-6.294;2023-04-19T03:27:28;35.65;;;14.18;;
41719;SDS011;27405;53.316;-6.294;2023-04-19T03:29:55;26.70;;;12.52;;
41719;SDS011;27405;53.316;-6.294;2023-04-19T03:32:21;32.25;;;13.65;;
41719;SDS011;27405;53.316;-6.294;2023-04-19T03:34:47;29.10;;;13.40;;
41719;SDS011;27405;53.316;-6.294;2023-04-19T03:37:13;30.50;;;14.55;;
41719;SDS011;27405;53.316;-6.294;2023-04-19T03:39:38;33.00;;;14.40;;
41719;SDS011;27405;53.316;-6.294;2023-04-19T03:42:04;35.75;;;14.25;;
41719;SDS011;27405;53.316;-6.294;2023-04-19T03:44:30;34.60;;;14.85;;
41719;SDS011;27405;53.316;-6.294;2023-04-19T03:46:57;31.75;;;14.65;;
41719;SDS011;27405;53.316;-6.294;2023-04-19T03:49:23;34.10;;;14.57;;
41719;SDS011;27405;53.316;-6.294;2023-04-19T03:51:49;32.85;;;14.40;;
41719;SDS011;27405;53.316;-6.294;2023-04-19T03:54:14;26.92;;;12.93;;
41719;SDS011;27405;53.316;-6.294;2023-04-19T03:56:40;29.13;;;13.23;;
41719;SDS011;27405;53.316;-6.294;2023-04-19T03:59:06;31.42;;;14.35;;
41719;SDS011;27405;53.316;-6.294;2023-04-19T04:01:33;35.42;;;13.15;;
41719;SDS011;27405;53.316;-6.294;2023-04-19T04:03:58;32.63;;;14.48;;
41719;SDS011;27405;53.316;-6.294;2023-04-19T04:06:24;35.22;;;13.30;;
41719;SDS011;27405;53.316;-6.294;2023-04-19T04:08:50;31.95;;;14.35;;
41719;SDS011;27405;53.316;-6.294;2023-04-19T04:11:16;28.52;;;13.40;;
41719;SDS011;27405;53.316;-6.294;2023-04-19T04:13:42;37.78;;;14.70;;
41719;SDS011;27405;53.316;-6.294;2023-04-19T04:16:08;30.48;;;13.23;;
41719;SDS011;27405;53.316;-6.294;2023-04-19T04:18:33;31.70;;;14.23;;
41719;SDS011;27405;53.316;-6.294;2023-04-19T04:20:59;30.98;;;14.60;;
41719;SDS011;27405;53.316;-6.294;2023-04-19T04:23:24;39.50;;;15.68;;
41719;SDS011;27405;53.316;-6.294;2023-04-19T04:26:00;35.58;;;13.77;;
41719;SDS011;27405;53.316;-6.294;2023-04-19T04:28:26;32.72;;;14.20;;
41719;SDS011;27405;53.316;-6.294;2023-04-19T04:30:53;29.10;;;14.25;;
41719;SDS011;27405;53.316;-6.294;2023-04-19T04:33:23;30.30;;;13.75;;
41719;SDS011;27405;53.316;-6.294;2023-04-19T04:35:50;33.50;;;14.63;;
41719;SDS011;27405;53.316;-6.294;2023-04-19T04:38:17;30.75;;;14.70;;
41719;SDS011;27405;53.316;-6.294;2023-04-19T04:40:43;31.13;;;14.57;;
41719;SDS011;27405;53.316;-6.294;2023-04-19T04:43:18;30.50;;;14.00;;
41719;SDS011;27405;53.316;-6.294;2023-04-19T04:45:45;30.60;;;14.38;;
41719;SDS011;27405;53.316;-6.294;2023-04-19T04:48:11;36.95;;;15.75;;
41719;SDS011;27405;53.316;-6.294;2023-04-19T04:50:38;34.40;;;14.85;;
41719;SDS011;27405;53.316;-6.294;2023-04-19T04:53:04;33.42;;;14.57;;
41719;SDS011;27405;53.316;-6.294;2023-04-19T04:55:29;35.05;;;16.05;;
41719;SDS011;27405;53.316;-6.294;2023-04-19T04:57:55;36.65;;;15.45;;
41719;SDS011;27405;53.316;-6.294;2023-04-19T05:00:21;35.25;;;14.82;;
41719;SDS011;27405;53.316;-6.294;2023-04-19T05:02:48;28.40;;;13.48;;
41719;SDS011;27405;53.316;-6.294;2023-04-19T05:05:13;28.33;;;14.65;;
41719;SDS011;27405;53.316;-6.294;2023-04-19T05:07:39;33.03;;;15.18;;
41719;SDS011;27405;53.316;-6.294;2023-04-19T05:10:05;31.35;;;15.27;;
41719;SDS011;27405;53.316;-6.294;2023-04-19T05:12:31;31.20;;;14.38;;
41719;SDS011;27405;53.316;-6.294;2023-04-19T05:14:57;31.42;;;14.55;;
41719;SDS011;27405;53.316;-6.294;2023-04-19T05:17:23;30.80;;;13.45;;
41719;SDS011;27405;53.316;-6.294;2023-04-19T05:19:49;33.92;;;15.30;;
41719;SDS011;27405;53.316;-6.294;2023-04-19T05:22:15;28.35;;;13.70;;
41719;SDS011;27405;53.316;-6.294;2023-04-19T05:24:40;34.33;;;13.15;;
41719;SDS011;27405;53.316;-6.294;2023-04-19T05:27:06;30.58;;;14.32;;
41719;SDS011;27405;53.316;-6.294;2023-04-19T05:29:33;30.48;;;13.52;;
41719;SDS011;27405;53.316;-6.294;2023-04-19T05:31:59;31.48;;;14.15;;
41719;SDS011;27405;53.316;-6.294;2023-04-19T05:34:25;30.15;;;13.60;;
41719;SDS011;27405;53.316;-6.294;2023-04-19T05:36:50;32.97;;;14.38;;
41719;SDS011;27405;53.316;-6.294;2023-04-19T05:39:16;34.33;;;14.00;;
41719;SDS011;27405;53.316;-6.294;2023-04-19T05:41:42;33.30;;;13.82;;
41719;SDS011;27405;53.316;-6.294;2023-04-19T05:44:07;27.20;;;13.55;;
41719;SDS011;27405;53.316;-6.294;2023-04-19T05:46:33;30.30;;;13.85;;
41719;SDS011;27405;53.316;-6.294;2023-04-19T05:49:00;31.92;;;13.27;;
41719;SDS011;27405;53.316;-6.294;2023-04-19T05:51:26;30.15;;;12.95;;
41719;SDS011;27405;53.316;-6.294;2023-04-19T05:53:52;31.50;;;13.93;;
41719;SDS011;27405;53.316;-6.294;2023-04-19T05:56:18;27.00;;;13.15;;
41719;SDS011;27405;53.316;-6.294;2023-04-19T05:58:44;34.00;;;12.95;;
41719;SDS011;27405;53.316;-6.294;2023-04-19T06:01:09;32.63;;;13.65;;
41719;SDS011;27405;53.316;-6.294;2023-04-19T06:03:35;26.92;;;12.30;;
41719;SDS011;27405;53.316;-6.294;2023-04-19T06:06:01;33.17;;;13.10;;
41719;SDS011;27405;53.316;-6.294;2023-04-19T06:08:27;31.90;;;12.70;;
41719;SDS011;27405;53.316;-6.294;2023-04-19T06:10:52;26.92;;;12.00;;
41719;SDS011;27405;53.316;-6.294;2023-04-19T06:13:20;29.05;;;11.55;;
41719;SDS011;27405;53.316;-6.294;2023-04-19T06:15:46;33.22;;;12.90;;
41719;SDS011;27405;53.316;-6.294;2023-04-19T06:18:12;30.63;;;12.13;;
41719;SDS011;27405;53.316;-6.294;2023-04-19T06:20:38;28.45;;;12.05;;
41719;SDS011;27405;53.316;-6.294;2023-04-19T06:23:04;29.77;;;13.13;;
41719;SDS011;27405;53.316;-6.294;2023-04-19T06:25:32;29.10;;;12.70;;
41719;SDS011;27405;53.316;-6.294;2023-04-19T06:27:58;32.50;;;12.00;;
41719;SDS011;27405;53.316;-6.294;2023-04-19T06:30:23;26.40;;;10.68;;
41719;SDS011;27405;53.316;-6.294;2023-04-19T06:32:49;29.08;;;11.82;;
41719;SDS011;27405;53.316;-6.294;2023-04-19T06:35:15;27.15;;;12.10;;
41719;SDS011;27405;53.316;-6.294;2023-04-19T06:37:41;33.03;;;11.25;;
41719;SDS011;27405;53.316;-6.294;2023-04-19T06:40:06;31.80;;;11.95;;
41719;SDS011;27405;53.316;-6.294;2023-04-19T06:42:33;27.75;;;11.95;;
41719;SDS011;27405;53.316;-6.294;2023-04-19T06:44:59;27.88;;;12.07;;
41719;SDS011;27405;53.316;-6.294;2023-04-19T06:47:25;24.95;;;11.25;;
41719;SDS011;27405;53.316;-6.294;2023-04-19T06:49:51;29.05;;;11.38;;
41719;SDS011;27405;53.316;-6.294;2023-04-19T06:52:17;34.67;;;12.15;;
41719;SDS011;27405;53.316;-6.294;2023-04-19T06:54:46;25.00;;;10.52;;
41719;SDS011;27405;53.316;-6.294;2023-04-19T06:57:13;27.00;;;11.02;;
41719;SDS011;27405;53.316;-6.294;2023-04-19T06:59:39;23.85;;;11.02;;
41719;SDS011;27405;53.316;-6.294;2023-04-19T07:02:05;26.48;;;10.85;;
41719;SDS011;27405;53.316;-6.294;2023-04-19T07:04:31;27.63;;;11.23;;
41719;SDS011;27405;53.316;-6.294;2023-04-19T07:06:56;30.58;;;11.10;;
41719;SDS011;27405;53.316;-6.294;2023-04-19T07:09:22;31.95;;;11.20;;
41719;SDS011;27405;53.316;-6.294;2023-04-19T07:11:48;26.42;;;10.45;;
41719;SDS011;27405;53.316;-6.294;2023-04-19T07:14:15;25.20;;;10.18;;
41719;SDS011;27405;53.316;-6.294;2023-04-19T07:16:43;30.33;;;11.82;;
41719;SDS011;27405;53.316;-6.294;2023-04-19T07:19:10;26.33;;;11.05;;
41719;SDS011;27405;53.316;-6.294;2023-04-19T07:21:35;29.58;;;11.65;;
41719;SDS011;27405;53.316;-6.294;2023-04-19T07:24:03;30.92;;;11.07;;
41719;SDS011;27405;53.316;-6.294;2023-04-19T07:26:30;28.92;;;11.63;;
41719;SDS011;27405;53.316;-6.294;2023-04-19T07:28:55;27.48;;;10.77;;
41719;SDS011;27405;53.316;-6.294;2023-04-19T07:31:22;28.45;;;11.30;;
41719;SDS011;27405;53.316;-6.294;2023-04-19T07:33:49;30.80;;;10.68;;
41719;SDS011;27405;53.316;-6.294;2023-04-19T07:36:15;29.55;;;11.55;;
41719;SDS011;27405;53.316;-6.294;2023-04-19T07:38:41;30.50;;;10.77;;
41719;SDS011;27405;53.316;-6.294;2023-04-19T07:41:07;28.42;;;10.93;;
41719;SDS011;27405;53.316;-6.294;2023-04-19T07:43:33;30.27;;;10.80;;
41719;SDS011;27405;53.316;-6.294;2023-04-19T07:45:59;31.48;;;11.40;;
41719;SDS011;27405;53.316;-6.294;2023-04-19T07:48:25;26.38;;;11.02;;
41719;SDS011;27405;53.316;-6.294;2023-04-19T07:50:50;28.35;;;10.95;;
41719;SDS011;27405;53.316;-6.294;2023-04-19T07:53:16;28.13;;;10.90;;
41719;SDS011;27405;53.316;-6.294;2023-04-19T07:55:42;32.65;;;11.40;;
41719;SDS011;27405;53.316;-6.294;2023-04-19T07:58:08;27.38;;;10.70;;
41719;SDS011;27405;53.316;-6.294;2023-04-19T08:00:34;28.95;;;11.38;;
41719;SDS011;27405;53.316;-6.294;2023-04-19T08:03:01;27.23;;;10.45;;
41719;SDS011;27405;53.316;-6.294;2023-04-19T08:05:28;29.05;;;10.80;;
41719;SDS011;27405;53.316;-6.294;2023-04-19T08:07:54;30.92;;;11.77;;
41719;SDS011;27405;53.316;-6.294;2023-04-19T08:10:20;26.30;;;11.38;;
41719;SDS011;27405;53.316;-6.294;2023-04-19T08:12:46;26.05;;;10.48;;
41719;SDS011;27405;53.316;-6.294;2023-04-19T08:15:13;26.10;;;11.13;;
41719;SDS011;27405;53.316;-6.294;2023-04-19T08:17:40;29.80;;;11.00;;
41719;SDS011;27405;53.316;-6.294;2023-04-19T08:20:08;31.20;;;11.70;;
41719;SDS011;27405;53.316;-6.294;2023-04-19T08:22:35;27.08;;;11.10;;
41719;SDS011;27405;53.316;-6.294;2023-04-19T08:25:00;28.60;;;11.45;;
41719;SDS011;27405;53.316;-6.294;2023-04-19T08:27:26;30.50;;;11.98;;
41719;SDS011;27405;53.316;-6.294;2023-04-19T08:29:52;33.63;;;12.10;;
41719;SDS011;27405;53.316;-6.294;2023-04-19T08:32:17;31.10;;;11.10;;
41719;SDS011;27405;53.316;-6.294;2023-04-19T08:34:43;30.55;;;11.13;;
41719;SDS011;27405;53.316;-6.294;2023-04-19T08:37:10;30.63;;;11.77;;
41719;SDS011;27405;53.316;-6.294;2023-04-19T08:39:35;27.65;;;11.27;;
41719;SDS011;27405;53.316;-6.294;2023-04-19T08:42:02;34.00;;;11.75;;
41719;SDS011;27405;53.316;-6.294;2023-04-19T08:44:31;29.20;;;11.63;;
41719;SDS011;27405;53.316;-6.294;2023-04-19T08:46:58;27.05;;;11.82;;
41719;SDS011;27405;53.316;-6.294;2023-04-19T08:49:25;29.00;;;11.93;;
41719;SDS011;27405;53.316;-6.294;2023-04-19T08:51:52;28.95;;;12.23;;
41719;SDS011;27405;53.316;-6.294;2023-04-19T08:54:18;32.60;;;12.18;;
41719;SDS011;27405;53.316;-6.294;2023-04-19T08:56:46;33.03;;;12.15;;
41719;SDS011;27405;53.316;-6.294;2023-04-19T08:59:11;32.70;;;13.20;;
41719;SDS011;27405;53.316;-6.294;2023-04-19T09:01:38;29.70;;;12.45;;
41719;SDS011;27405;53.316;-6.294;2023-04-19T09:04:05;32.60;;;13.18;;
41719;SDS011;27405;53.316;-6.294;2023-04-19T09:06:38;33.40;;;13.98;;
41719;SDS011;27405;53.316;-6.294;2023-04-19T09:11:42;36.20;;;12.87;;
41719;SDS011;27405;53.316;-6.294;2023-04-19T09:14:09;34.55;;;14.10;;
41719;SDS011;27405;53.316;-6.294;2023-04-19T09:16:36;35.83;;;14.70;;
41719;SDS011;27405;53.316;-6.294;2023-04-19T09:19:03;29.58;;;12.65;;
41719;SDS011;27405;53.316;-6.294;2023-04-19T09:21:29;33.15;;;14.60;;
41719;SDS011;27405;53.316;-6.294;2023-04-19T09:23:56;37.65;;;13.70;;
41719;SDS011;27405;53.316;-6.294;2023-04-19T09:26:23;37.95;;;13.90;;
41719;SDS011;27405;53.316;-6.294;2023-04-19T09:29:00;35.17;;;14.57;;
41719;SDS011;27405;53.316;-6.294;2023-04-19T09:31:28;30.33;;;14.10;;
41719;SDS011;27405;53.316;-6.294;2023-04-19T09:33:54;32.80;;;13.45;;
41719;SDS011;27405;53.316;-6.294;2023-04-19T09:36:30;35.38;;;14.18;;
41719;SDS011;27405;53.316;-6.294;2023-04-19T09:38:57;27.88;;;12.98;;
41719;SDS011;27405;53.316;-6.294;2023-04-19T09:41:24;36.88;;;13.30;;
41719;SDS011;27405;53.316;-6.294;2023-04-19T09:43:50;31.60;;;12.85;;
41719;SDS011;27405;53.316;-6.294;2023-04-19T09:46:33;35.60;;;14.30;;
41719;SDS011;27405;53.316;-6.294;2023-04-19T09:51:49;31.08;;;13.30;;
41719;SDS011;27405;53.316;-6.294;2023-04-19T09:54:16;33.97;;;13.48;;
41719;SDS011;27405;53.316;-6.294;2023-04-19T09:56:43;28.92;;;12.27;;
41719;SDS011;27405;53.316;-6.294;2023-04-19T09:59:10;30.23;;;14.13;;
41719;SDS011;27405;53.316;-6.294;2023-04-19T10:01:43;35.45;;;13.75;;
41719;SDS011;27405;53.316;-6.294;2023-04-19T10:04:10;33.85;;;13.85;;
41719;SDS011;27405;53.316;-6.294;2023-04-19T10:06:38;37.35;;;13.85;;
41719;SDS011;27405;53.316;-6.294;2023-04-19T10:09:04;37.30;;;14.95;;
41719;SDS011;27405;53.316;-6.294;2023-04-19T10:11:34;34.45;;;14.20;;
41719;SDS011;27405;53.316;-6.294;2023-04-19T10:14:08;37.53;;;14.82;;
41719;SDS011;27405;53.316;-6.294;2023-04-19T10:16:35;36.30;;;13.75;;
41719;SDS011;27405;53.316;-6.294;2023-04-19T10:19:03;34.05;;;15.07;;
41719;SDS011;27405;53.316;-6.294;2023-04-19T10:21:33;33.53;;;14.82;;
41719;SDS011;27405;53.316;-6.294;2023-04-19T10:24:00;36.00;;;15.43;;
41719;SDS011;27405;53.316;-6.294;2023-04-19T10:26:26;33.38;;;14.15;;
41719;SDS011;27405;53.316;-6.294;2023-04-19T10:28:55;32.83;;;14.70;;
41719;SDS011;27405;53.316;-6.294;2023-04-19T10:31:21;31.60;;;14.05;;
41719;SDS011;27405;53.316;-6.294;2023-04-19T10:33:50;33.35;;;15.25;;
41719;SDS011;27405;53.316;-6.294;2023-04-19T10:36:16;34.45;;;14.25;;
41719;SDS011;27405;53.316;-6.294;2023-04-19T10:41:22;37.85;;;14.35;;
41719;SDS011;27405;53.316;-6.294;2023-04-19T10:48:58;36.80;;;13.50;;
41719;SDS011;27405;53.316;-6.294;2023-04-19T10:54:12;31.73;;;13.73;;
41719;SDS011;27405;53.316;-6.294;2023-04-19T10:59:22;31.45;;;15.50;;
41719;SDS011;27405;53.316;-6.294;2023-04-19T11:09:23;38.22;;;15.32;;
41719;SDS011;27405;53.316;-6.294;2023-04-19T11:11:51;39.78;;;16.77;;
41719;SDS011;27405;53.316;-6.294;2023-04-19T11:14:17;40.75;;;16.85;;
41719;SDS011;27405;53.316;-6.294;2023-04-19T11:16:45;39.03;;;17.52;;
41719;SDS011;27405;53.316;-6.294;2023-04-19T11:19:14;38.63;;;17.58;;
41719;SDS011;27405;53.316;-6.294;2023-04-19T11:21:40;40.17;;;16.50;;
41719;SDS011;27405;53.316;-6.294;2023-04-19T11:26:35;40.83;;;17.02;;
41719;SDS011;27405;53.316;-6.294;2023-04-19T11:29:01;37.75;;;17.75;;
41719;SDS011;27405;53.316;-6.294;2023-04-19T11:31:27;36.90;;;18.05;;
41719;SDS011;27405;53.316;-6.294;2023-04-19T11:33:57;34.10;;;16.95;;
41719;SDS011;27405;53.316;-6.294;2023-04-19T11:36:24;39.28;;;17.77;;
41719;SDS011;27405;53.316;-6.294;2023-04-19T11:38:50;40.95;;;18.85;;
41719;SDS011;27405;53.316;-6.294;2023-04-19T11:41:17;40.17;;;18.05;;
41719;SDS011;27405;53.316;-6.294;2023-04-19T11:43:42;41.60;;;17.13;;
41719;SDS011;27405;53.316;-6.294;2023-04-19T11:46:11;31.92;;;16.83;;
41719;SDS011;27405;53.316;-6.294;2023-04-19T11:48:37;42.55;;;18.60;;
41719;SDS011;27405;53.316;-6.294;2023-04-19T11:51:13;37.30;;;18.70;;
41719;SDS011;27405;53.316;-6.294;2023-04-19T11:53:39;44.03;;;19.45;;
41719;SDS011;27405;53.316;-6.294;2023-04-19T11:56:06;41.08;;;18.73;;
41719;SDS011;27405;53.316;-6.294;2023-04-19T12:01:19;36.42;;;16.77;;
41719;SDS011;27405;53.316;-6.294;2023-04-19T12:03:47;36.72;;;18.65;;
41719;SDS011;27405;53.316;-6.294;2023-04-19T12:06:15;36.47;;;17.23;;
41719;SDS011;27405;53.316;-6.294;2023-04-19T12:08:45;42.70;;;18.60;;
41719;SDS011;27405;53.316;-6.294;2023-04-19T12:11:12;33.80;;;18.00;;
41719;SDS011;27405;53.316;-6.294;2023-04-19T12:13:38;35.88;;;17.52;;
41719;SDS011;27405;53.316;-6.294;2023-04-19T12:16:05;39.92;;;17.42;;
41719;SDS011;27405;53.316;-6.294;2023-04-19T12:18:47;38.92;;;16.48;;
41719;SDS011;27405;53.316;-6.294;2023-04-19T12:21:27;37.17;;;17.15;;
41719;SDS011;27405;53.316;-6.294;2023-04-19T12:23:58;37.85;;;17.42;;
41719;SDS011;27405;53.316;-6.294;2023-04-19T12:26:25;37.13;;;18.23;;
41719;SDS011;27405;53.316;-6.294;2023-04-19T12:28:53;36.15;;;17.80;;
41719;SDS011;27405;53.316;-6.294;2023-04-19T12:31:19;39.22;;;18.75;;
41719;SDS011;27405;53.316;-6.294;2023-04-19T12:33:45;40.67;;;17.02;;
41719;SDS011;27405;53.316;-6.294;2023-04-19T12:36:12;35.88;;;19.33;;
41719;SDS011;27405;53.316;-6.294;2023-04-19T12:38:37;37.47;;;17.65;;
41719;SDS011;27405;53.316;-6.294;2023-04-19T12:41:03;33.45;;;17.67;;
41719;SDS011;27405;53.316;-6.294;2023-04-19T12:43:29;35.22;;;18.33;;
41719;SDS011;27405;53.316;-6.294;2023-04-19T12:45:56;36.33;;;18.02;;
41719;SDS011;27405;53.316;-6.294;2023-04-19T12:48:22;37.45;;;17.52;;
41719;SDS011;27405;53.316;-6.294;2023-04-19T12:50:48;41.15;;;17.75;;
41719;SDS011;27405;53.316;-6.294;2023-04-19T12:53:14;36.83;;;16.25;;
41719;SDS011;27405;53.316;-6.294;2023-04-19T12:55:40;38.90;;;17.15;;
41719;SDS011;27405;53.316;-6.294;2023-04-19T12:58:05;36.30;;;17.10;;
41719;SDS011;27405;53.316;-6.294;2023-04-19T13:00:31;35.63;;;17.17;;
41719;SDS011;27405;53.316;-6.294;2023-04-19T13:02:57;37.45;;;16.67;;
41719;SDS011;27405;53.316;-6.294;2023-04-19T13:05:23;38.88;;;17.95;;
41719;SDS011;27405;53.316;-6.294;2023-04-19T13:07:48;38.85;;;17.77;;
41719;SDS011;27405;53.316;-6.294;2023-04-19T13:10:14;30.92;;;16.67;;
41719;SDS011;27405;53.316;-6.294;2023-04-19T13:12:40;32.95;;;16.48;;
41719;SDS011;27405;53.316;-6.294;2023-04-19T13:15:06;41.03;;;18.08;;
41719;SDS011;27405;53.316;-6.294;2023-04-19T13:17:32;41.13;;;17.80;;
41719;SDS011;27405;53.316;-6.294;2023-04-19T13:19:59;36.55;;;17.40;;
41719;SDS011;27405;53.316;-6.294;2023-04-19T13:22:25;35.58;;;17.85;;
41719;SDS011;27405;53.316;-6.294;2023-04-19T13:24:50;36.42;;;17.35;;
41719;SDS011;27405;53.316;-6.294;2023-04-19T13:27:16;36.40;;;16.52;;
41719;SDS011;27405;53.316;-6.294;2023-04-19T13:29:42;44.97;;;18.25;;
41719;SDS011;27405;53.316;-6.294;2023-04-19T13:32:07;37.33;;;17.55;;
41719;SDS011;27405;53.316;-6.294;2023-04-19T13:34:36;36.50;;;18.05;;
41719;SDS011;27405;53.316;-6.294;2023-04-19T13:37:03;37.25;;;17.90;;
41719;SDS011;27405;53.316;-6.294;2023-04-19T13:39:28;38.78;;;16.70;;
41719;SDS011;27405;53.316;-6.294;2023-04-19T13:41:54;37.15;;;17.45;;
41719;SDS011;27405;53.316;-6.294;2023-04-19T13:44:20;40.90;;;17.75;;
41719;SDS011;27405;53.316;-6.294;2023-04-19T13:46:45;39.08;;;17.05;;
41719;SDS011;27405;53.316;-6.294;2023-04-19T13:49:11;36.38;;;16.48;;
41719;SDS011;27405;53.316;-6.294;2023-04-19T13:51:36;35.90;;;17.20;;
41719;SDS011;27405;53.316;-6.294;2023-04-19T13:54:02;38.65;;;18.13;;
41719;SDS011;27405;53.316;-6.294;2023-04-19T13:56:28;36.30;;;16.77;;
41719;SDS011;27405;53.316;-6.294;2023-04-19T13:58:54;36.63;;;16.90;;
41719;SDS011;27405;53.316;-6.294;2023-04-19T14:01:19;39.30;;;18.50;;
41719;SDS011;27405;53.316;-6.294;2023-04-19T14:03:45;34.17;;;16.88;;
41719;SDS011;27405;53.316;-6.294;2023-04-19T14:06:11;34.35;;;18.13;;
41719;SDS011;27405;53.316;-6.294;2023-04-19T14:08:37;36.13;;;18.30;;
41719;SDS011;27405;53.316;-6.294;2023-04-19T14:11:02;38.05;;;19.13;;
41719;SDS011;27405;53.316;-6.294;2023-04-19T14:13:28;38.00;;;18.95;;
41719;SDS011;27405;53.316;-6.294;2023-04-19T14:15:54;37.65;;;19.17;;
41719;SDS011;27405;53.316;-6.294;2023-04-19T14:18:19;38.55;;;18.30;;
41719;SDS011;27405;53.316;-6.294;2023-04-19T14:20:45;40.55;;;18.60;;
41719;SDS011;27405;53.316;-6.294;2023-04-19T14:23:11;40.85;;;18.60;;
41719;SDS011;27405;53.316;-6.294;2023-04-19T14:25:36;38.88;;;19.08;;
41719;SDS011;27405;53.316;-6.294;2023-04-19T14:28:02;39.80;;;18.75;;
41719;SDS011;27405;53.316;-6.294;2023-04-19T14:30:28;38.00;;;18.38;;
41719;SDS011;27405;53.316;-6.294;2023-04-19T14:32:54;40.53;;;18.83;;
41719;SDS011;27405;53.316;-6.294;2023-04-19T14:35:19;35.10;;;19.45;;
41719;SDS011;27405;53.316;-6.294;2023-04-19T14:37:45;38.20;;;19.30;;